sensor_id;sensor_type;location;lat;lon;timestamp;pressure;altitude;pressure_sealevel;temperature;humidity
29045;BME280;16133;49.486;12.176;2023-04-08T00:01:51;97473.66;;;1.90;100.00
29045;BME280;16133;49.486;12.176;2023-04-08T00:04:17;97494.28;;;2.05;100.00
29045;BME280;16133;49.486;12.176;2023-04-08T00:06:42;97489.66;;;2.08;100.00
29045;BME280;16133;49.486;12.176;2023-04-08T00:09:08;97489.38;;;2.11;100.00
29045;BME280;16133;49.486;12.176;2023-04-08T00:11:33;97485.72;;;2.14;100.00
29045;BME280;16133;49.486;12.176;2023-04-08T00:13:59;97484.63;;;2.16;100.00
29045;BME280;16133;49.486;12.176;2023-04-08T00:16:24;97493.19;;;2.18;100.00
29045;BME280;16133;49.486;12.176;2023-04-08T00:18:50;97483.66;;;2.17;100.00
29045;BME280;16133;49.486;12.176;2023-04-08T00:21:16;97487.22;;;2.16;100.00
29045;BME280;16133;49.486;12.176;2023-04-08T00:23:44;97483.41;;;2.20;100.00
29045;BME280;16133;49.486;12.176;2023-04-08T00:26:10;97492.66;;;2.24;100.00
29045;BME280;16133;49.486;12.176;2023-04-08T00:28:35;97486.50;;;2.25;100.00
29045;BME280;16133;49.486;12.176;2023-04-08T00:31:01;97491.47;;;2.28;100.00
29045;BME280;16133;49.486;12.176;2023-04-08T00:33:26;97492.16;;;2.30;100.00
29045;BME280;16133;49.486;12.176;2023-04-08T00:35:52;97491.22;;;2.31;100.00
29045;BME280;16133;49.486;12.176;2023-04-08T00:38:17;97494.53;;;2.33;100.00
29045;BME280;16133;49.486;12.176;2023-04-08T00:40:42;97496.06;;;2.36;99.73
29045;BME280;16133;49.486;12.176;2023-04-08T00:43:08;97495.22;;;2.35;99.46
29045;BME280;16133;49.486;12.176;2023-04-08T00:45:33;97501.41;;;2.34;99.65
29045;BME280;16133;49.486;12.176;2023-04-08T00:47:59;97493.56;;;2.34;99.74
29045;BME280;16133;49.486;12.176;2023-04-08T00:50:25;97492.72;;;2.34;99.75
29045;BME280;16133;49.486;12.176;2023-04-08T00:52:50;97498.22;;;2.31;99.93
29045;BME280;16133;49.486;12.176;2023-04-08T00:55:16;97495.03;;;2.27;99.96
29045;BME280;16133;49.486;12.176;2023-04-08T00:57:41;97503.84;;;2.26;100.00
29045;BME280;16133;49.486;12.176;2023-04-08T01:00:07;97504.94;;;2.24;100.00
29045;BME280;16133;49.486;12.176;2023-04-08T01:05:41;97498.03;;;2.23;100.00
29045;BME280;16133;49.486;12.176;2023-04-08T01:08:10;97501.22;;;2.26;100.00
29045;BME280;16133;49.486;12.176;2023-04-08T01:10:38;97502.63;;;2.30;100.00
29045;BME280;16133;49.486;12.176;2023-04-08T01:13:13;97502.25;;;2.35;100.00
29045;BME280;16133;49.486;12.176;2023-04-08T01:15:43;97496.75;;;2.38;100.00
29045;BME280;16133;49.486;12.176;2023-04-08T01:18:11;97500.94;;;2.40;100.00
29045;BME280;16133;49.486;12.176;2023-04-08T01:20:39;97493.50;;;2.46;100.00
29045;BME280;16133;49.486;12.176;2023-04-08T01:23:15;97494.69;;;2.53;100.00
29045;BME280;16133;49.486;12.176;2023-04-08T01:25:48;97485.34;;;2.60;100.00
29045;BME280;16133;49.486;12.176;2023-04-08T01:28:15;97492.69;;;2.66;100.00
29045;BME280;16133;49.486;12.176;2023-04-08T01:30:44;97493.00;;;2.72;100.00
29045;BME280;16133;49.486;12.176;2023-04-08T01:33:13;97491.53;;;2.79;100.00
29045;BME280;16133;49.486;12.176;2023-04-08T01:35:39;97490.19;;;2.85;96.64
29045;BME280;16133;49.486;12.176;2023-04-08T01:38:06;97486.59;;;2.86;96.13
29045;BME280;16133;49.486;12.176;2023-04-08T01:40:34;97489.78;;;2.89;94.88
29045;BME280;16133;49.486;12.176;2023-04-08T01:43:02;97489.41;;;2.94;94.48
29045;BME280;16133;49.486;12.176;2023-04-08T01:45:29;97462.56;;;2.81;93.13
29045;BME280;16133;49.486;12.176;2023-04-08T01:47:55;97486.41;;;2.99;93.33
29045;BME280;16133;49.486;12.176;2023-04-08T01:50:22;97484.47;;;3.01;93.23
29045;BME280;16133;49.486;12.176;2023-04-08T01:52:50;97493.28;;;3.00;92.38
29045;BME280;16133;49.486;12.176;2023-04-08T01:55:18;97493.28;;;3.00;91.77
29045;BME280;16133;49.486;12.176;2023-04-08T01:57:48;97488.47;;;3.05;91.07
29045;BME280;16133;49.486;12.176;2023-04-08T02:00:15;97490.16;;;3.06;90.93
29045;BME280;16133;49.486;12.176;2023-04-08T02:02:43;97488.38;;;3.06;91.22
29045;BME280;16133;49.486;12.176;2023-04-08T02:05:11;97491.56;;;3.10;90.07
29045;BME280;16133;49.486;12.176;2023-04-08T02:07:36;97489.50;;;3.13;90.44
29045;BME280;16133;49.486;12.176;2023-04-08T02:10:02;97500.94;;;3.12;90.31
29045;BME280;16133;49.486;12.176;2023-04-08T02:12:28;97472.59;;;2.97;90.29
29045;BME280;16133;49.486;12.176;2023-04-08T02:14:54;97499.72;;;3.16;89.38
29045;BME280;16133;49.486;12.176;2023-04-08T02:17:33;97507.19;;;3.21;89.38
29045;BME280;16133;49.486;12.176;2023-04-08T02:25:30;97510.66;;;3.21;89.14
29045;BME280;16133;49.486;12.176;2023-04-08T02:27:59;97503.91;;;3.28;90.53
29045;BME280;16133;49.486;12.176;2023-04-08T02:30:26;97501.56;;;3.25;89.26
29045;BME280;16133;49.486;12.176;2023-04-08T02:32:53;97505.81;;;3.26;89.10
29045;BME280;16133;49.486;12.176;2023-04-08T02:35:19;97501.97;;;3.30;90.44
29045;BME280;16133;49.486;12.176;2023-04-08T02:37:45;97458.03;;;3.13;88.29
29045;BME280;16133;49.486;12.176;2023-04-08T02:40:26;97490.88;;;3.48;88.13
29045;BME280;16133;49.486;12.176;2023-04-08T02:42:52;97483.78;;;3.38;87.83
29045;BME280;16133;49.486;12.176;2023-04-08T02:45:18;97496.78;;;3.50;88.14
29045;BME280;16133;49.486;12.176;2023-04-08T02:47:44;97497.91;;;3.57;88.95
29045;BME280;16133;49.486;12.176;2023-04-08T02:50:10;97499.06;;;3.64;88.09
29045;BME280;16133;49.486;12.176;2023-04-08T02:52:35;97500.19;;;3.71;87.90
29045;BME280;16133;49.486;12.176;2023-04-08T02:55:01;97499.34;;;3.80;87.74
29045;BME280;16133;49.486;12.176;2023-04-08T02:57:26;97504.03;;;3.76;87.98
29045;BME280;16133;49.486;12.176;2023-04-08T02:59:52;97493.97;;;3.91;88.71
29045;BME280;16133;49.486;12.176;2023-04-08T03:02:17;97495.09;;;3.79;89.71
29045;BME280;16133;49.486;12.176;2023-04-08T03:04:43;97500.59;;;3.76;89.96
29045;BME280;16133;49.486;12.176;2023-04-08T03:07:08;97499.06;;;3.73;90.26
29045;BME280;16133;49.486;12.176;2023-04-08T03:09:33;97505.03;;;3.75;90.85
29045;BME280;16133;49.486;12.176;2023-04-08T03:11:59;97506.25;;;3.71;91.42
29045;BME280;16133;49.486;12.176;2023-04-08T03:14:24;97506.09;;;3.73;91.94
29045;BME280;16133;49.486;12.176;2023-04-08T03:16:50;97514.84;;;3.83;93.28
29045;BME280;16133;49.486;12.176;2023-04-08T03:19:15;97512.38;;;4.01;93.25
29045;BME280;16133;49.486;12.176;2023-04-08T03:21:41;97495.75;;;3.81;93.83
29045;BME280;16133;49.486;12.176;2023-04-08T03:24:06;97507.09;;;3.91;93.90
29045;BME280;16133;49.486;12.176;2023-04-08T03:26:31;97516.25;;;4.16;94.93
29045;BME280;16133;49.486;12.176;2023-04-08T03:28:57;97501.31;;;3.97;95.76
29045;BME280;16133;49.486;12.176;2023-04-08T03:31:22;97516.31;;;3.76;98.62
29045;BME280;16133;49.486;12.176;2023-04-08T03:33:47;97507.38;;;3.88;100.00
29045;BME280;16133;49.486;12.176;2023-04-08T03:36:13;97512.75;;;3.67;100.00
29045;BME280;16133;49.486;12.176;2023-04-08T03:38:38;97520.00;;;3.54;100.00
29045;BME280;16133;49.486;12.176;2023-04-08T03:41:04;97514.59;;;3.46;100.00
29045;BME280;16133;49.486;12.176;2023-04-08T03:43:29;97523.13;;;3.38;100.00
29045;BME280;16133;49.486;12.176;2023-04-08T03:45:55;97523.22;;;3.27;100.00
29045;BME280;16133;49.486;12.176;2023-04-08T03:48:21;97519.09;;;3.34;100.00
29045;BME280;16133;49.486;12.176;2023-04-08T03:50:47;97521.38;;;3.18;100.00
29045;BME280;16133;49.486;12.176;2023-04-08T03:53:12;97517.84;;;3.29;100.00
29045;BME280;16133;49.486;12.176;2023-04-08T03:55:38;97518.91;;;3.17;100.00
29045;BME280;16133;49.486;12.176;2023-04-08T03:58:04;97523.97;;;3.09;100.00
29045;BME280;16133;49.486;12.176;2023-04-08T04:00:29;97527.59;;;3.17;100.00
29045;BME280;16133;49.486;12.176;2023-04-08T04:02:54;97531.94;;;3.07;100.00
29045;BME280;16133;49.486;12.176;2023-04-08T04:05:20;97530.03;;;3.09;100.00
29045;BME280;16133;49.486;12.176;2023-04-08T04:07:45;97530.69;;;2.81;100.00
29045;BME280;16133;49.486;12.176;2023-04-08T04:10:11;97535.28;;;2.88;100.00
29045;BME280;16133;49.486;12.176;2023-04-08T04:12:36;97533.78;;;2.86;100.00
29045;BME280;16133;49.486;12.176;2023-04-08T04:15:02;97527.81;;;2.84;100.00
29045;BME280;16133;49.486;12.176;2023-04-08T04:17:27;97528.88;;;2.72;100.00
29045;BME280;16133;49.486;12.176;2023-04-08T04:19:53;97527.06;;;2.52;100.00
29045;BME280;16133;49.486;12.176;2023-04-08T04:22:18;97524.69;;;2.49;100.00
29045;BME280;16133;49.486;12.176;2023-04-08T04:24:47;97520.34;;;2.59;100.00
29045;BME280;16133;49.486;12.176;2023-04-08T04:27:13;97512.81;;;2.45;100.00
29045;BME280;16133;49.486;12.176;2023-04-08T04:29:38;97477.06;;;2.02;100.00
29045;BME280;16133;49.486;12.176;2023-04-08T04:32:04;97509.06;;;2.26;100.00
29045;BME280;16133;49.486;12.176;2023-04-08T04:34:30;97494.78;;;2.30;100.00
29045;BME280;16133;49.486;12.176;2023-04-08T04:36:56;97490.06;;;2.24;100.00
29045;BME280;16133;49.486;12.176;2023-04-08T04:39:21;97490.38;;;2.31;100.00
29045;BME280;16133;49.486;12.176;2023-04-08T04:41:47;97480.78;;;2.20;100.00
29045;BME280;16133;49.486;12.176;2023-04-08T04:44:13;97477.47;;;2.18;100.00
29045;BME280;16133;49.486;12.176;2023-04-08T04:46:39;97472.09;;;2.20;100.00
29045;BME280;16133;49.486;12.176;2023-04-08T04:49:04;97476.06;;;2.14;100.00
29045;BME280;16133;49.486;12.176;2023-04-08T04:51:30;97467.50;;;2.12;100.00
29045;BME280;16133;49.486;12.176;2023-04-08T04:53:57;97461.00;;;2.07;100.00
29045;BME280;16133;49.486;12.176;2023-04-08T04:56:22;97442.84;;;2.15;100.00
29045;BME280;16133;49.486;12.176;2023-04-08T04:58:48;97432.00;;;2.19;100.00
29045;BME280;16133;49.486;12.176;2023-04-08T05:01:13;97425.50;;;2.14;100.00
29045;BME280;16133;49.486;12.176;2023-04-08T05:03:38;97424.88;;;2.21;100.00
29045;BME280;16133;49.486;12.176;2023-04-08T05:06:04;97416.44;;;2.18;100.00
29045;BME280;16133;49.486;12.176;2023-04-08T05:08:30;97407.63;;;2.19;100.00
29045;BME280;16133;49.486;12.176;2023-04-08T05:10:55;97404.34;;;2.26;100.00
29045;BME280;16133;49.486;12.176;2023-04-08T05:13:21;97401.88;;;2.25;100.00
29045;BME280;16133;49.486;12.176;2023-04-08T05:15:46;97400.16;;;2.35;100.00
29045;BME280;16133;49.486;12.176;2023-04-08T05:18:12;97406.22;;;2.35;100.00
29045;BME280;16133;49.486;12.176;2023-04-08T05:20:37;97400.78;;;2.27;100.00
29045;BME280;16133;49.486;12.176;2023-04-08T05:23:03;97406.66;;;2.40;100.00
29045;BME280;16133;49.486;12.176;2023-04-08T05:25:29;97414.25;;;2.44;100.00
29045;BME280;16133;49.486;12.176;2023-04-08T05:27:55;97421.41;;;2.41;100.00
29045;BME280;16133;49.486;12.176;2023-04-08T05:30:20;97425.31;;;2.47;100.00
29045;BME280;16133;49.486;12.176;2023-04-08T05:32:46;97420.00;;;2.58;100.00
29045;BME280;16133;49.486;12.176;2023-04-08T05:35:11;97420.22;;;2.76;100.00
29045;BME280;16133;49.486;12.176;2023-04-08T05:37:37;97419.81;;;2.80;100.00
29045;BME280;16133;49.486;12.176;2023-04-08T05:40:02;97435.88;;;2.87;100.00
29045;BME280;16133;49.486;12.176;2023-04-08T05:42:28;97457.81;;;2.96;100.00
29045;BME280;16133;49.486;12.176;2023-04-08T05:44:53;97476.56;;;2.91;100.00
29045;BME280;16133;49.486;12.176;2023-04-08T05:47:19;97478.03;;;2.84;100.00
29045;BME280;16133;49.486;12.176;2023-04-08T05:49:44;97485.78;;;2.85;100.00
29045;BME280;16133;49.486;12.176;2023-04-08T05:52:09;97484.91;;;2.75;100.00
29045;BME280;16133;49.486;12.176;2023-04-08T05:54:35;97484.91;;;2.75;100.00
29045;BME280;16133;49.486;12.176;2023-04-08T05:57:41;97479.38;;;2.78;100.00
29045;BME280;16133;49.486;12.176;2023-04-08T06:00:09;97486.69;;;2.75;100.00
29045;BME280;16133;49.486;12.176;2023-04-08T06:02:35;97492.22;;;2.81;100.00
29045;BME280;16133;49.486;12.176;2023-04-08T06:05:01;97489.41;;;2.73;100.00
29045;BME280;16133;49.486;12.176;2023-04-08T06:07:27;97494.97;;;2.80;100.00
29045;BME280;16133;49.486;12.176;2023-04-08T06:09:53;97499.56;;;2.87;100.00
29045;BME280;16133;49.486;12.176;2023-04-08T06:12:18;97497.59;;;2.80;100.00
29045;BME280;16133;49.486;12.176;2023-04-08T06:14:43;97481.06;;;2.79;100.00
29045;BME280;16133;49.486;12.176;2023-04-08T06:17:09;97484.66;;;2.88;100.00
29045;BME280;16133;49.486;12.176;2023-04-08T06:19:34;97480.53;;;2.85;100.00
29045;BME280;16133;49.486;12.176;2023-04-08T06:22:00;97486.31;;;3.10;100.00
29045;BME280;16133;49.486;12.176;2023-04-08T06:24:25;97489.81;;;2.99;100.00
29045;BME280;16133;49.486;12.176;2023-04-08T06:26:52;97488.94;;;3.10;100.00
29045;BME280;16133;49.486;12.176;2023-04-08T06:29:19;97500.09;;;3.12;100.00
29045;BME280;16133;49.486;12.176;2023-04-08T06:31:44;97512.16;;;3.24;100.00
29045;BME280;16133;49.486;12.176;2023-04-08T06:34:10;97511.31;;;3.23;100.00
29045;BME280;16133;49.486;12.176;2023-04-08T06:36:35;97525.16;;;3.25;100.00
29045;BME280;16133;49.486;12.176;2023-04-08T06:39:02;97535.56;;;3.46;100.00
29045;BME280;16133;49.486;12.176;2023-04-08T06:41:28;97543.59;;;3.45;100.00
29045;BME280;16133;49.486;12.176;2023-04-08T06:43:53;97551.47;;;3.45;100.00
29045;BME280;16133;49.486;12.176;2023-04-08T06:46:18;97558.78;;;3.51;100.00
29045;BME280;16133;49.486;12.176;2023-04-08T06:48:44;97561.59;;;3.59;100.00
29045;BME280;16133;49.486;12.176;2023-04-08T06:51:09;97565.88;;;3.60;100.00
29045;BME280;16133;49.486;12.176;2023-04-08T06:53:35;97560.53;;;3.71;100.00
29045;BME280;16133;49.486;12.176;2023-04-08T06:56:01;97569.13;;;3.82;100.00
29045;BME280;16133;49.486;12.176;2023-04-08T06:58:26;97569.84;;;3.94;100.00
29045;BME280;16133;49.486;12.176;2023-04-08T07:00:55;97579.81;;;4.00;100.00
29045;BME280;16133;49.486;12.176;2023-04-08T07:03:21;97591.81;;;4.03;100.00
29045;BME280;16133;49.486;12.176;2023-04-08T07:05:47;97600.56;;;4.22;100.00
29045;BME280;16133;49.486;12.176;2023-04-08T07:08:12;97601.97;;;4.26;100.00
29045;BME280;16133;49.486;12.176;2023-04-08T07:10:38;97613.59;;;4.33;100.00
29045;BME280;16133;49.486;12.176;2023-04-08T07:13:03;97609.47;;;4.41;100.00
29045;BME280;16133;49.486;12.176;2023-04-08T07:15:29;97610.28;;;4.41;100.00
29045;BME280;16133;49.486;12.176;2023-04-08T07:17:55;97616.66;;;4.39;100.00
29045;BME280;16133;49.486;12.176;2023-04-08T07:20:24;97614.84;;;4.39;100.00
29045;BME280;16133;49.486;12.176;2023-04-08T07:22:50;97616.38;;;4.32;100.00
29045;BME280;16133;49.486;12.176;2023-04-08T07:25:16;97619.31;;;4.48;100.00
29045;BME280;16133;49.486;12.176;2023-04-08T07:27:41;97625.63;;;4.46;100.00
29045;BME280;16133;49.486;12.176;2023-04-08T07:30:07;97623.00;;;4.46;100.00
29045;BME280;16133;49.486;12.176;2023-04-08T07:32:33;97631.03;;;4.44;100.00
29045;BME280;16133;49.486;12.176;2023-04-08T07:34:59;97631.31;;;4.51;100.00
29045;BME280;16133;49.486;12.176;2023-04-08T07:37:26;97628.28;;;4.65;100.00
29045;BME280;16133;49.486;12.176;2023-04-08T07:39:51;97608.22;;;4.45;100.00
29045;BME280;16133;49.486;12.176;2023-04-08T07:42:16;97634.66;;;4.62;100.00
29045;BME280;16133;49.486;12.176;2023-04-08T07:44:43;97627.19;;;4.67;100.00
29045;BME280;16133;49.486;12.176;2023-04-08T07:47:08;97635.06;;;4.58;100.00
29045;BME280;16133;49.486;12.176;2023-04-08T07:49:33;97640.44;;;4.56;100.00
29045;BME280;16133;49.486;12.176;2023-04-08T07:51:59;97644.34;;;4.62;100.00
29045;BME280;16133;49.486;12.176;2023-04-08T07:54:24;97629.66;;;4.50;100.00
29045;BME280;16133;49.486;12.176;2023-04-08T07:56:50;97646.69;;;4.55;100.00
29045;BME280;16133;49.486;12.176;2023-04-08T07:59:15;97646.56;;;4.66;100.00
29045;BME280;16133;49.486;12.176;2023-04-08T08:01:41;97648.47;;;4.64;100.00
29045;BME280;16133;49.486;12.176;2023-04-08T08:04:06;97647.38;;;4.57;100.00
29045;BME280;16133;49.486;12.176;2023-04-08T08:06:32;97648.91;;;4.60;100.00
29045;BME280;16133;49.486;12.176;2023-04-08T08:08:58;97646.28;;;4.60;100.00
29045;BME280;16133;49.486;12.176;2023-04-08T08:11:23;97647.09;;;4.60;100.00
29045;BME280;16133;49.486;12.176;2023-04-08T08:13:48;97651.25;;;4.72;100.00
29045;BME280;16133;49.486;12.176;2023-04-08T08:16:14;97643.25;;;4.74;100.00
29045;BME280;16133;49.486;12.176;2023-04-08T08:18:40;97639.38;;;4.78;100.00
29045;BME280;16133;49.486;12.176;2023-04-08T08:21:06;97644.63;;;4.88;100.00
29045;BME280;16133;49.486;12.176;2023-04-08T08:23:31;97639.09;;;5.00;100.00
29045;BME280;16133;49.486;12.176;2023-04-08T08:26:01;97645.16;;;5.10;100.00
29045;BME280;16133;49.486;12.176;2023-04-08T08:28:27;97619.03;;;4.90;100.00
29045;BME280;16133;49.486;12.176;2023-04-08T08:30:52;97657.91;;;5.15;100.00
29045;BME280;16133;49.486;12.176;2023-04-08T08:33:18;97664.53;;;5.28;100.00
29045;BME280;16133;49.486;12.176;2023-04-08T08:35:43;97675.16;;;5.37;100.00
29045;BME280;16133;49.486;12.176;2023-04-08T08:38:09;97660.22;;;5.47;100.00
29045;BME280;16133;49.486;12.176;2023-04-08T08:40:35;97667.91;;;5.67;100.00
29045;BME280;16133;49.486;12.176;2023-04-08T08:43:00;97679.38;;;5.86;100.00
29045;BME280;16133;49.486;12.176;2023-04-08T08:45:26;97674.75;;;6.07;100.00
29045;BME280;16133;49.486;12.176;2023-04-08T08:47:51;97691.72;;;6.22;100.00
29045;BME280;16133;49.486;12.176;2023-04-08T08:50:17;97694.78;;;6.17;100.00
29045;BME280;16133;49.486;12.176;2023-04-08T08:52:50;97707.75;;;6.38;100.00
29045;BME280;16133;49.486;12.176;2023-04-08T08:55:20;97712.97;;;6.48;100.00
29045;BME280;16133;49.486;12.176;2023-04-08T08:57:46;97717.38;;;6.74;100.00
29045;BME280;16133;49.486;12.176;2023-04-08T09:00:15;97711.31;;;6.92;100.00
29045;BME280;16133;49.486;12.176;2023-04-08T09:02:40;97713.97;;;7.09;100.00
29045;BME280;16133;49.486;12.176;2023-04-08T09:05:06;97713.16;;;7.27;100.00
29045;BME280;16133;49.486;12.176;2023-04-08T09:07:35;97723.16;;;7.41;100.00
29045;BME280;16133;49.486;12.176;2023-04-08T09:10:01;97716.03;;;7.59;100.00
29045;BME280;16133;49.486;12.176;2023-04-08T09:12:27;97717.53;;;7.79;100.00
29045;BME280;16133;49.486;12.176;2023-04-08T09:15:09;97722.91;;;7.52;100.00
29045;BME280;16133;49.486;12.176;2023-04-08T09:17:38;97722.13;;;7.34;100.00
29045;BME280;16133;49.486;12.176;2023-04-08T09:20:06;97724.25;;;7.12;100.00
29045;BME280;16133;49.486;12.176;2023-04-08T09:22:55;97720.22;;;6.91;100.00
29045;BME280;16133;49.486;12.176;2023-04-08T09:25:25;97717.13;;;6.95;100.00
29045;BME280;16133;49.486;12.176;2023-04-08T09:27:51;97717.13;;;6.95;100.00
29045;BME280;16133;49.486;12.176;2023-04-08T09:30:17;97718.13;;;7.12;100.00
29045;BME280;16133;49.486;12.176;2023-04-08T09:32:50;97724.78;;;7.16;100.00
29045;BME280;16133;49.486;12.176;2023-04-08T09:35:19;97723.84;;;7.07;100.00
29045;BME280;16133;49.486;12.176;2023-04-08T09:37:46;97725.88;;;7.13;100.00
29045;BME280;16133;49.486;12.176;2023-04-08T09:40:12;97728.16;;;7.08;100.00
29045;BME280;16133;49.486;12.176;2023-04-08T09:42:46;97731.75;;;7.07;100.00
29045;BME280;16133;49.486;12.176;2023-04-08T09:45:14;97729.03;;;6.99;100.00
29045;BME280;16133;49.486;12.176;2023-04-08T09:47:54;97733.44;;;7.08;100.00
29045;BME280;16133;49.486;12.176;2023-04-08T09:50:26;97730.94;;;7.07;100.00
29045;BME280;16133;49.486;12.176;2023-04-08T09:52:58;97733.97;;;7.12;100.00
29045;BME280;16133;49.486;12.176;2023-04-08T09:55:26;97725.03;;;7.13;100.00
29045;BME280;16133;49.486;12.176;2023-04-08T09:58:01;97729.59;;;7.38;100.00
29045;BME280;16133;49.486;12.176;2023-04-08T10:00:33;97733.13;;;7.47;100.00
29045;BME280;16133;49.486;12.176;2023-04-08T10:03:21;97738.94;;;7.50;100.00
29045;BME280;16133;49.486;12.176;2023-04-08T10:05:52;97740.31;;;7.80;100.00
29045;BME280;16133;49.486;12.176;2023-04-08T10:08:18;97737.34;;;8.01;100.00
29045;BME280;16133;49.486;12.176;2023-04-08T10:10:44;97745.50;;;8.15;100.00
29045;BME280;16133;49.486;12.176;2023-04-08T10:13:10;97740.03;;;8.35;100.00
29045;BME280;16133;49.486;12.176;2023-04-08T10:15:36;97742.91;;;8.24;100.00
29045;BME280;16133;49.486;12.176;2023-04-08T10:23:05;97748.56;;;7.77;100.00
29045;BME280;16133;49.486;12.176;2023-04-08T10:30:37;97746.44;;;7.81;100.00
29045;BME280;16133;49.486;12.176;2023-04-08T10:33:09;97743.78;;;7.81;100.00
29045;BME280;16133;49.486;12.176;2023-04-08T10:35:35;97746.16;;;7.66;100.00
29045;BME280;16133;49.486;12.176;2023-04-08T10:38:02;97755.66;;;7.77;100.00
29045;BME280;16133;49.486;12.176;2023-04-08T10:40:27;97745.53;;;7.72;100.00
29045;BME280;16133;49.486;12.176;2023-04-08T10:42:54;97755.53;;;7.86;100.00
29045;BME280;16133;49.486;12.176;2023-04-08T10:45:20;97754.94;;;7.75;100.00
29045;BME280;16133;49.486;12.176;2023-04-08T10:47:45;97739.31;;;7.38;100.00
29045;BME280;16133;49.486;12.176;2023-04-08T10:50:14;97756.25;;;7.17;100.00
29045;BME280;16133;49.486;12.176;2023-04-08T10:52:47;97762.19;;;7.02;100.00
29045;BME280;16133;49.486;12.176;2023-04-08T10:55:13;97765.38;;;7.05;100.00
29045;BME280;16133;49.486;12.176;2023-04-08T10:57:39;97757.94;;;6.73;100.00
29045;BME280;16133;49.486;12.176;2023-04-08T11:00:11;97762.94;;;6.67;100.00
29045;BME280;16133;49.486;12.176;2023-04-08T11:02:39;97759.72;;;6.55;100.00
29045;BME280;16133;49.486;12.176;2023-04-08T11:05:05;97764.28;;;6.53;100.00
29045;BME280;16133;49.486;12.176;2023-04-08T11:07:39;97760.13;;;6.51;100.00
29045;BME280;16133;49.486;12.176;2023-04-08T11:10:06;97764.34;;;6.34;100.00
29045;BME280;16133;49.486;12.176;2023-04-08T11:12:32;97769.63;;;6.34;100.00
29045;BME280;16133;49.486;12.176;2023-04-08T11:14:58;97775.84;;;6.43;100.00
29045;BME280;16133;49.486;12.176;2023-04-08T11:17:23;97772.50;;;6.41;100.00
29045;BME280;16133;49.486;12.176;2023-04-08T11:19:49;97770.69;;;6.51;100.00
29045;BME280;16133;49.486;12.176;2023-04-08T11:22:14;97768.25;;;6.40;100.00
29045;BME280;16133;49.486;12.176;2023-04-08T11:24:41;97776.22;;;6.48;100.00
29045;BME280;16133;49.486;12.176;2023-04-08T11:27:07;97779.56;;;6.50;100.00
29045;BME280;16133;49.486;12.176;2023-04-08T11:29:32;97771.69;;;6.40;100.00
29045;BME280;16133;49.486;12.176;2023-04-08T11:31:59;97782.19;;;6.50;100.00
29045;BME280;16133;49.486;12.176;2023-04-08T11:34:24;97781.22;;;6.51;100.00
29045;BME280;16133;49.486;12.176;2023-04-08T11:36:50;97781.34;;;6.59;100.00
29045;BME280;16133;49.486;12.176;2023-04-08T11:39:16;97782.88;;;6.79;100.00
29045;BME280;16133;49.486;12.176;2023-04-08T11:41:41;97786.25;;;6.71;100.00
29045;BME280;16133;49.486;12.176;2023-04-08T11:44:07;97784.75;;;6.69;100.00
29045;BME280;16133;49.486;12.176;2023-04-08T11:46:33;97787.53;;;6.67;100.00
29045;BME280;16133;49.486;12.176;2023-04-08T11:49:03;97788.66;;;6.65;100.00
29045;BME280;16133;49.486;12.176;2023-04-08T11:51:30;97790.47;;;6.64;100.00
29045;BME280;16133;49.486;12.176;2023-04-08T11:53:56;97790.63;;;6.63;100.00
29045;BME280;16133;49.486;12.176;2023-04-08T11:56:22;97787.50;;;6.77;100.00
29045;BME280;16133;49.486;12.176;2023-04-08T11:58:49;97784.41;;;6.82;100.00
29045;BME280;16133;49.486;12.176;2023-04-08T12:01:14;97785.72;;;6.95;100.00
29045;BME280;16133;49.486;12.176;2023-04-08T12:04:00;97783.66;;;7.16;100.00
29045;BME280;16133;49.486;12.176;2023-04-08T12:06:27;97779.72;;;7.74;100.00
29045;BME280;16133;49.486;12.176;2023-04-08T12:08:54;97772.28;;;8.21;100.00
29045;BME280;16133;49.486;12.176;2023-04-08T12:11:20;97768.00;;;8.79;96.28
29045;BME280;16133;49.486;12.176;2023-04-08T12:13:45;97768.16;;;9.36;92.62
29045;BME280;16133;49.486;12.176;2023-04-08T12:16:11;97773.00;;;9.73;90.15
29045;BME280;16133;49.486;12.176;2023-04-08T12:18:37;97776.78;;;10.11;84.86
29045;BME280;16133;49.486;12.176;2023-04-08T12:21:02;97776.47;;;10.30;82.68
29045;BME280;16133;49.486;12.176;2023-04-08T12:23:27;97774.59;;;10.46;79.91
29045;BME280;16133;49.486;12.176;2023-04-08T12:25:53;97782.72;;;10.53;76.33
29045;BME280;16133;49.486;12.176;2023-04-08T12:28:18;97781.50;;;10.64;77.72
29045;BME280;16133;49.486;12.176;2023-04-08T12:30:43;97790.91;;;10.82;77.08
29045;BME280;16133;49.486;12.176;2023-04-08T12:33:09;97784.56;;;10.91;75.01
29045;BME280;16133;49.486;12.176;2023-04-08T12:35:34;97787.16;;;11.08;74.28
29045;BME280;16133;49.486;12.176;2023-04-08T12:38:00;97792.56;;;11.22;73.14
29045;BME280;16133;49.486;12.176;2023-04-08T12:40:26;97787.72;;;11.26;71.68
29045;BME280;16133;49.486;12.176;2023-04-08T12:42:51;97802.94;;;11.32;71.18
29045;BME280;16133;49.486;12.176;2023-04-08T12:45:17;97794.34;;;11.30;72.65
29045;BME280;16133;49.486;12.176;2023-04-08T12:47:42;97788.28;;;11.44;69.47
29045;BME280;16133;49.486;12.176;2023-04-08T12:50:08;97801.56;;;11.44;68.92
29045;BME280;16133;49.486;12.176;2023-04-08T12:52:34;97799.38;;;11.17;67.62
29045;BME280;16133;49.486;12.176;2023-04-08T12:54:59;97804.66;;;10.86;68.05
29045;BME280;16133;49.486;12.176;2023-04-08T12:57:25;97798.66;;;10.45;68.60
29045;BME280;16133;49.486;12.176;2023-04-08T12:59:52;97803.69;;;10.16;70.82
29045;BME280;16133;49.486;12.176;2023-04-08T13:02:17;97802.16;;;9.81;71.41
29045;BME280;16133;49.486;12.176;2023-04-08T13:04:43;97798.16;;;9.60;72.21
29045;BME280;16133;49.486;12.176;2023-04-08T13:07:08;97805.38;;;9.26;73.80
29045;BME280;16133;49.486;12.176;2023-04-08T13:09:34;97807.81;;;9.11;75.23